Time;durP1;ratioP1;P1;durP2;ratioP2;P2;SDS_P1;SDS_P2;PMS_P1;PMS_P2;Temp;Humidity;BMP_temperature;BMP_pressure;BME280_temperature;BME280_humidity;BME280_pressure;Samples;Min_cycle;Max_cycle;Signal;HPM_P1;HPM_P2
2023/04/04 00:02:18;;;;;;;6.80;2.83;;;;;;;;;;5031314;28;20028;-72
2023/04/04 00:04:44;;;;;;;9.48;2.92;;;;;;;;;;5031328;28;20025;-71
2023/04/04 00:07:10;;;;;;;7.03;3.40;;;;;;;;;;5050547;28;20481;-73
2023/04/04 00:09:37;;;;;;;6.45;2.60;;;;;;;;;;5051044;28;20029;-72
2023/04/04 00:12:03;;;;;;;9.30;2.80;;;;;;;;;;5051190;28;20139;-72
2023/04/04 00:14:31;;;;;;;6.05;2.85;;;;;;;;;;5044691;28;20033;-73
2023/04/04 00:16:57;;;;;;;6.97;2.70;;;;;;;;;;5029937;28;20362;-72
2023/04/04 00:19:24;;;;;;;6.72;2.90;;;;;;;;;;5031179;28;20495;-71
2023/04/04 00:21:50;;;;;;;8.77;3.28;;;;;;;;;;5031594;28;20442;-73
2023/04/04 00:24:16;;;;;;;8.65;2.97;;;;;;;;;;5031102;28;20040;-74
2023/04/04 00:26:42;;;;;;;12.18;3.25;;;;;;;;;;5031142;28;20044;-72
2023/04/04 00:29:08;;;;;;;5.43;2.53;;;;;;;;;;5031055;28;20029;-72
2023/04/04 00:31:35;;;;;;;7.63;3.33;;;;;;;;;;5031046;28;20494;-72
2023/04/04 00:34:01;;;;;;;6.43;2.60;;;;;;;;;;5030992;28;20476;-72
2023/04/04 00:36:27;;;;;;;6.95;2.75;;;;;;;;;;5030983;28;20025;-75
2023/04/04 00:38:53;;;;;;;7.03;2.75;;;;;;;;;;5031275;28;20033;-71
2023/04/04 00:41:19;;;;;;;6.55;3.17;;;;;;;;;;5030745;28;20081;-72
2023/04/04 00:43:47;;;;;;;8.80;3.20;;;;;;;;;;5032114;28;20030;-72
2023/04/04 00:46:14;;;;;;;9.45;3.28;;;;;;;;;;5033496;28;20115;-72
2023/04/04 00:48:41;;;;;;;9.70;2.50;;;;;;;;;;5034676;28;20029;-72
2023/04/04 00:51:07;;;;;;;8.23;3.50;;;;;;;;;;5034788;28;20025;-73
2023/04/04 00:53:33;;;;;;;10.07;3.38;;;;;;;;;;5034658;28;20378;-73
2023/04/04 00:55:59;;;;;;;10.60;3.40;;;;;;;;;;5035104;28;20036;-73
2023/04/04 00:58:26;;;;;;;6.93;3.17;;;;;;;;;;5034339;28;20084;-71
2023/04/04 01:00:52;;;;;;;9.40;3.10;;;;;;;;;;5034644;28;20087;-71
2023/04/04 01:03:18;;;;;;;7.22;3.22;;;;;;;;;;5034717;28;20022;-71
2023/04/04 01:05:44;;;;;;;6.60;2.95;;;;;;;;;;5034522;28;20091;-71
2023/04/04 01:08:11;;;;;;;9.48;3.72;;;;;;;;;;5032830;28;20022;-73
2023/04/04 01:10:38;;;;;;;9.13;3.50;;;;;;;;;;5034151;28;20096;-72
2023/04/04 01:13:05;;;;;;;11.35;3.35;;;;;;;;;;5034284;28;20470;-72
2023/04/04 01:15:31;;;;;;;10.77;3.25;;;;;;;;;;5034463;28;20474;-71
2023/04/04 01:17:59;;;;;;;7.05;3.13;;;;;;;;;;5034255;28;20021;-72
2023/04/04 01:20:26;;;;;;;7.75;3.17;;;;;;;;;;5034232;28;20087;-72
2023/04/04 01:22:53;;;;;;;10.98;3.25;;;;;;;;;;5034054;28;20097;-72
2023/04/04 01:25:25;;;;;;;6.75;3.50;;;;;;;;;;5033577;28;20032;-73
2023/04/04 01:27:52;;;;;;;10.32;3.75;;;;;;;;;;5033998;28;20390;-70
2023/04/04 01:30:18;;;;;;;7.10;3.60;;;;;;;;;;5034057;28;20025;-72
2023/04/04 01:32:58;;;;;;;11.15;3.97;;;;;;;;;;5033936;28;20025;-72
2023/04/04 01:35:41;;;;;;;5.43;3.65;;;;;;;;;;5033965;28;20040;-73
2023/04/04 01:38:07;;;;;;;13.48;3.40;;;;;;;;;;5033748;28;20030;-71
2023/04/04 01:40:36;;;;;;;12.02;4.38;;;;;;;;;;5033613;28;20475;-73
2023/04/04 01:43:02;;;;;;;7.28;3.70;;;;;;;;;;5033168;28;20046;-73
2023/04/04 01:45:28;;;;;;;10.00;3.53;;;;;;;;;;5033670;28;20099;-73
2023/04/04 01:47:55;;;;;;;10.60;3.63;;;;;;;;;;5033590;28;20064;-71
2023/04/04 01:50:22;;;;;;;8.85;4.15;;;;;;;;;;5033521;28;20469;-72
2023/04/04 01:52:48;;;;;;;8.93;3.90;;;;;;;;;;5033560;28;20026;-72
2023/04/04 01:55:15;;;;;;;10.20;3.72;;;;;;;;;;5032695;28;20374;-70
2023/04/04 01:57:41;;;;;;;9.50;4.05;;;;;;;;;;5033277;28;20057;-72
2023/04/04 02:00:07;;;;;;;7.80;3.55;;;;;;;;;;5033254;28;20034;-73
2023/04/04 02:02:33;;;;;;;7.57;3.60;;;;;;;;;;5033452;28;20386;-72
2023/04/04 02:04:59;;;;;;;9.73;3.70;;;;;;;;;;5031969;28;20382;-72
2023/04/04 02:07:25;;;;;;;11.68;4.28;;;;;;;;;;5047507;28;20481;-72
2023/04/04 02:09:52;;;;;;;9.57;4.03;;;;;;;;;;5052833;28;20539;-73
2023/04/04 02:12:18;;;;;;;7.47;4.22;;;;;;;;;;5053193;28;20485;-72
2023/04/04 02:14:44;;;;;;;8.30;4.00;;;;;;;;;;5053045;28;20029;-72
2023/04/04 02:17:10;;;;;;;9.20;4.40;;;;;;;;;;5052111;28;20021;-71
2023/04/04 02:19:37;;;;;;;6.50;3.50;;;;;;;;;;5052914;28;20447;-71
2023/04/04 02:22:03;;;;;;;11.63;4.40;;;;;;;;;;5052638;28;20040;-72
2023/04/04 02:24:29;;;;;;;11.40;4.30;;;;;;;;;;5052944;28;20025;-72
2023/04/04 02:26:55;;;;;;;10.82;4.28;;;;;;;;;;5052888;28;20078;-71
2023/04/04 02:29:22;;;;;;;10.30;4.20;;;;;;;;;;5052821;28;20025;-72
2023/04/04 02:31:48;;;;;;;8.45;4.60;;;;;;;;;;5052824;28;20020;-72
2023/04/04 02:34:14;;;;;;;10.30;4.63;;;;;;;;;;5033230;28;20041;-72
2023/04/04 02:36:40;;;;;;;10.75;4.43;;;;;;;;;;5033218;28;20025;-73
2023/04/04 02:39:06;;;;;;;15.40;4.55;;;;;;;;;;5032739;28;20114;-73
2023/04/04 02:41:32;;;;;;;12.20;4.03;;;;;;;;;;5032277;28;20734;-74
2023/04/04 02:43:58;;;;;;;11.15;4.72;;;;;;;;;;5032749;28;20026;-73
2023/04/04 02:46:24;;;;;;;11.27;4.18;;;;;;;;;;5032581;28;20107;-72
2023/04/04 02:48:50;;;;;;;8.93;4.45;;;;;;;;;;5031945;28;20038;-72
2023/04/04 02:51:16;;;;;;;7.68;4.32;;;;;;;;;;5032381;28;20032;-72
2023/04/04 02:53:43;;;;;;;11.50;4.10;;;;;;;;;;5032291;28;20028;-72
2023/04/04 02:56:09;;;;;;;8.95;4.32;;;;;;;;;;5032403;28;20493;-71
2023/04/04 02:58:35;;;;;;;7.38;4.38;;;;;;;;;;5032190;28;20025;-71
2023/04/04 03:01:01;;;;;;;7.40;4.18;;;;;;;;;;5032385;28;20608;-72
2023/04/04 03:03:27;;;;;;;9.63;4.63;;;;;;;;;;5031690;28;20029;-73
2023/04/04 03:05:53;;;;;;;10.27;3.88;;;;;;;;;;5032379;28;20099;-73
2023/04/04 03:08:19;;;;;;;11.60;4.40;;;;;;;;;;5032037;28;20036;-72
2023/04/04 03:10:46;;;;;;;12.40;5.22;;;;;;;;;;5031950;28;20101;-71
2023/04/04 03:13:12;;;;;;;8.15;4.43;;;;;;;;;;5031618;28;20032;-72
2023/04/04 03:15:39;;;;;;;13.27;4.53;;;;;;;;;;5032173;28;20466;-74
2023/04/04 03:18:05;;;;;;;9.35;4.20;;;;;;;;;;5031929;28;20108;-73
2023/04/04 03:20:32;;;;;;;7.40;4.85;;;;;;;;;;5031851;28;20030;-72
2023/04/04 03:22:58;;;;;;;8.52;3.83;;;;;;;;;;5032089;28;20075;-74
2023/04/04 03:25:24;;;;;;;11.45;4.30;;;;;;;;;;5032142;28;20480;-72
2023/04/04 03:27:51;;;;;;;8.70;4.05;;;;;;;;;;5031972;28;20037;-73
2023/04/04 03:30:17;;;;;;;9.60;4.82;;;;;;;;;;5031405;28;20189;-72
2023/04/04 03:32:43;;;;;;;9.52;4.78;;;;;;;;;;5031637;28;20489;-72
2023/04/04 03:35:09;;;;;;;8.68;4.38;;;;;;;;;;5031942;28;20021;-72
2023/04/04 03:37:36;;;;;;;11.07;4.65;;;;;;;;;;5031897;28;20238;-71
2023/04/04 03:40:02;;;;;;;10.43;4.25;;;;;;;;;;5031376;28;20413;-72
2023/04/04 03:42:28;;;;;;;10.05;4.53;;;;;;;;;;5031488;28;20087;-73
2023/04/04 03:44:54;;;;;;;10.77;4.65;;;;;;;;;;5031050;28;20029;-72
2023/04/04 03:47:20;;;;;;;10.00;4.22;;;;;;;;;;5031458;28;20521;-73
2023/04/04 03:49:46;;;;;;;9.27;4.45;;;;;;;;;;5031596;28;20029;-72
2023/04/04 03:52:12;;;;;;;9.00;4.68;;;;;;;;;;5031401;28;20528;-71
2023/04/04 03:54:40;;;;;;;10.50;4.43;;;;;;;;;;5031150;28;20025;-73
2023/04/04 03:57:06;;;;;;;16.38;5.03;;;;;;;;;;5031382;28;20567;-72
2023/04/04 03:59:32;;;;;;;9.93;4.20;;;;;;;;;;5031308;28;20140;-72
2023/04/04 04:01:58;;;;;;;8.57;4.28;;;;;;;;;;5030713;28;20083;-71
2023/04/04 04:04:24;;;;;;;10.35;4.78;;;;;;;;;;5031639;28;20133;-72
2023/04/04 04:06:50;;;;;;;9.93;4.63;;;;;;;;;;5031204;28;20033;-73
2023/04/04 04:09:17;;;;;;;10.35;4.85;;;;;;;;;;5029856;28;20484;-72
2023/04/04 04:11:43;;;;;;;18.05;4.28;;;;;;;;;;5031255;28;20029;-72
2023/04/04 04:14:09;;;;;;;11.77;4.85;;;;;;;;;;5031255;28;20103;-72
2023/04/04 04:16:39;;;;;;;9.57;4.60;;;;;;;;;;5031179;28;20465;-72
2023/04/04 04:19:05;;;;;;;13.20;4.03;;;;;;;;;;5032155;28;20037;-73
2023/04/04 04:21:31;;;;;;;9.80;4.68;;;;;;;;;;5035332;28;20115;-73
2023/04/04 04:23:57;;;;;;;10.23;4.50;;;;;;;;;;5035242;28;20057;-72
2023/04/04 04:26:23;;;;;;;9.52;4.03;;;;;;;;;;5035203;28;20030;-72
2023/04/04 04:28:49;;;;;;;9.25;4.30;;;;;;;;;;5035225;28;20030;-71
2023/04/04 04:31:15;;;;;;;16.77;6.50;;;;;;;;;;5035349;28;20025;-72
2023/04/04 04:33:41;;;;;;;10.40;5.10;;;;;;;;;;5034855;28;20120;-73
2023/04/04 04:36:08;;;;;;;11.90;5.05;;;;;;;;;;5034977;28;20021;-71
2023/04/04 04:38:34;;;;;;;8.00;4.80;;;;;;;;;;5034961;28;20041;-73
2023/04/04 04:41:01;;;;;;;11.25;4.57;;;;;;;;;;5034681;28;20029;-72
2023/04/04 04:43:27;;;;;;;9.18;4.13;;;;;;;;;;5034745;28;20095;-71
2023/04/04 04:45:53;;;;;;;9.10;4.65;;;;;;;;;;5034851;28;20033;-73
2023/04/04 04:48:19;;;;;;;12.90;5.18;;;;;;;;;;5034773;28;20385;-71
2023/04/04 04:50:45;;;;;;;12.38;5.28;;;;;;;;;;5034278;28;20025;-72
2023/04/04 04:53:12;;;;;;;13.95;6.57;;;;;;;;;;5034646;28;20084;-72
2023/04/04 04:55:38;;;;;;;14.65;5.97;;;;;;;;;;5034705;28;20075;-73
2023/04/04 04:58:05;;;;;;;12.93;5.30;;;;;;;;;;5034701;28;20065;-73
2023/04/04 05:00:31;;;;;;;9.65;4.75;;;;;;;;;;5034940;28;20104;-72
2023/04/04 05:02:59;;;;;;;13.75;5.28;;;;;;;;;;5034849;28;20087;-72
2023/04/04 05:05:25;;;;;;;11.27;4.78;;;;;;;;;;5034614;28;20028;-71
2023/04/04 05:07:51;;;;;;;9.50;5.10;;;;;;;;;;5049004;28;20390;-72
2023/04/04 05:10:17;;;;;;;10.32;5.18;;;;;;;;;;5054074;28;20397;-73
2023/04/04 05:12:47;;;;;;;10.25;5.40;;;;;;;;;;5054200;28;20029;-72
2023/04/04 05:15:13;;;;;;;9.73;4.90;;;;;;;;;;5054097;28;20036;-72
2023/04/04 05:17:39;;;;;;;10.32;5.95;;;;;;;;;;5054263;28;20021;-73
2023/04/04 05:20:06;;;;;;;9.07;5.43;;;;;;;;;;5053956;28;20048;-72
2023/04/04 05:22:32;;;;;;;15.40;6.22;;;;;;;;;;5054084;28;20025;-72
2023/04/04 05:24:58;;;;;;;11.57;5.50;;;;;;;;;;5037223;28;20489;-73
2023/04/04 05:27:25;;;;;;;13.32;5.32;;;;;;;;;;5034084;28;20052;-72
2023/04/04 05:29:51;;;;;;;9.13;5.22;;;;;;;;;;5033018;28;20056;-73
2023/04/04 05:32:17;;;;;;;12.68;5.70;;;;;;;;;;5033743;28;20293;-73
2023/04/04 05:34:43;;;;;;;11.25;5.80;;;;;;;;;;5033964;28;20026;-71
2023/04/04 05:37:09;;;;;;;12.43;6.30;;;;;;;;;;5033930;28;20053;-74
2023/04/04 05:39:36;;;;;;;14.35;6.25;;;;;;;;;;5033750;28;20496;-72
2023/04/04 05:42:02;;;;;;;12.18;5.70;;;;;;;;;;5032792;28;20052;-73
2023/04/04 05:44:28;;;;;;;12.60;6.05;;;;;;;;;;5033870;28;20486;-73
2023/04/04 05:46:55;;;;;;;13.52;6.45;;;;;;;;;;5033734;28;20445;-74
2023/04/04 05:49:21;;;;;;;16.77;6.85;;;;;;;;;;5033597;28;20080;-73
2023/04/04 05:51:47;;;;;;;14.82;6.50;;;;;;;;;;5033571;28;20029;-72
2023/04/04 05:54:13;;;;;;;11.20;6.30;;;;;;;;;;5033604;28;20049;-73
2023/04/04 05:56:40;;;;;;;17.17;6.43;;;;;;;;;;5033557;28;20127;-73
2023/04/04 05:59:06;;;;;;;13.80;7.35;;;;;;;;;;5032805;28;20091;-73
2023/04/04 06:01:33;;;;;;;11.05;7.15;;;;;;;;;;5033396;28;20025;-72
2023/04/04 06:03:59;;;;;;;12.85;7.38;;;;;;;;;;5033509;28;20108;-73
2023/04/04 06:06:26;;;;;;;16.30;6.82;;;;;;;;;;5033364;28;20021;-69
2023/04/04 06:08:52;;;;;;;14.85;7.30;;;;;;;;;;5033128;28;20611;-72
2023/04/04 06:11:18;;;;;;;17.58;7.00;;;;;;;;;;5041095;28;20037;-72
2023/04/04 06:13:44;;;;;;;15.55;6.60;;;;;;;;;;5040738;28;20029;-72
2023/04/04 06:16:10;;;;;;;14.18;6.80;;;;;;;;;;5039202;28;20025;-74
2023/04/04 06:18:36;;;;;;;13.45;6.82;;;;;;;;;;5053004;28;20291;-73
2023/04/04 06:21:03;;;;;;;17.35;6.78;;;;;;;;;;5052929;28;20485;-74
2023/04/04 06:23:29;;;;;;;11.88;7.00;;;;;;;;;;5052987;28;20036;-74
2023/04/04 06:25:55;;;;;;;14.15;7.15;;;;;;;;;;5052800;28;20037;-73
2023/04/04 06:28:21;;;;;;;15.15;6.22;;;;;;;;;;5051430;28;20025;-72
2023/04/04 06:30:49;;;;;;;12.73;7.28;;;;;;;;;;5037310;28;20036;-74
2023/04/04 06:33:15;;;;;;;13.13;6.78;;;;;;;;;;5037638;28;20147;-73
2023/04/04 06:35:41;;;;;;;15.43;6.90;;;;;;;;;;5042364;28;20044;-72
2023/04/04 06:38:08;;;;;;;15.57;7.65;;;;;;;;;;5052331;28;20100;-72
2023/04/04 06:40:35;;;;;;;13.40;6.68;;;;;;;;;;5052676;28;20025;-74
2023/04/04 06:43:01;;;;;;;18.25;7.78;;;;;;;;;;5049739;28;20053;-73
2023/04/04 06:45:28;;;;;;;11.48;7.05;;;;;;;;;;5039209;28;20545;-72
2023/04/04 06:47:54;;;;;;;14.88;7.18;;;;;;;;;;5052608;28;20040;-72
2023/04/04 06:50:21;;;;;;;14.00;7.32;;;;;;;;;;5052405;28;20016;-72
2023/04/04 06:52:48;;;;;;;12.55;7.55;;;;;;;;;;5052452;28;20032;-73
2023/04/04 06:55:14;;;;;;;13.57;7.32;;;;;;;;;;5052526;28;20487;-71
2023/04/04 06:57:40;;;;;;;10.68;6.95;;;;;;;;;;5050533;28;20057;-73
2023/04/04 07:00:08;;;;;;;9.80;6.32;;;;;;;;;;5046589;28;20564;-72
2023/04/04 07:02:34;;;;;;;16.38;8.40;;;;;;;;;;5050991;28;20060;-73
2023/04/04 07:05:00;;;;;;;14.20;6.90;;;;;;;;;;5039290;28;20125;-72
2023/04/04 07:07:26;;;;;;;12.75;6.85;;;;;;;;;;5051913;28;20025;-73
2023/04/04 07:09:52;;;;;;;13.40;7.07;;;;;;;;;;5045853;28;20497;-73
2023/04/04 07:12:18;;;;;;;10.98;6.53;;;;;;;;;;5051532;28;20044;-72
2023/04/04 07:14:44;;;;;;;13.18;6.65;;;;;;;;;;5040513;28;20029;-74
2023/04/04 07:17:10;;;;;;;11.25;7.13;;;;;;;;;;5039163;28;20021;-72
2023/04/04 07:19:36;;;;;;;13.57;6.60;;;;;;;;;;5045481;28;20025;-73
2023/04/04 07:22:02;;;;;;;15.60;6.82;;;;;;;;;;5038386;28;20486;-71
2023/04/04 07:24:28;;;;;;;12.32;6.53;;;;;;;;;;5031820;28;20033;-74
2023/04/04 07:26:55;;;;;;;15.02;6.40;;;;;;;;;;5035211;28;20040;-73
2023/04/04 07:29:21;;;;;;;15.52;6.57;;;;;;;;;;5041203;28;20423;-73
2023/04/04 07:31:47;;;;;;;13.70;6.57;;;;;;;;;;5049406;28;20036;-74
2023/04/04 07:34:13;;;;;;;13.73;6.68;;;;;;;;;;5067978;28;20028;-73
2023/04/04 07:36:39;;;;;;;11.32;6.43;;;;;;;;;;5070049;28;20028;-73
2023/04/04 07:39:05;;;;;;;15.38;7.07;;;;;;;;;;5031276;28;20069;-71
2023/04/04 07:41:32;;;;;;;13.20;6.72;;;;;;;;;;5031296;28;20072;-73
2023/04/04 07:43:58;;;;;;;12.02;7.75;;;;;;;;;;5044426;28;20028;-74
2023/04/04 07:46:26;;;;;;;16.17;7.30;;;;;;;;;;5033929;28;20417;-72
2023/04/04 07:48:52;;;;;;;11.48;6.03;;;;;;;;;;5035511;28;20083;-74
2023/04/04 07:51:27;;;;;;;15.50;6.55;;;;;;;;;;5031405;28;20101;-74
2023/04/04 07:53:53;;;;;;;12.85;6.50;;;;;;;;;;5029207;28;20032;-73
2023/04/04 07:56:20;;;;;;;13.13;7.03;;;;;;;;;;5045119;28;20385;-75
2023/04/04 07:58:46;;;;;;;14.15;7.43;;;;;;;;;;5049650;28;20021;-72
2023/04/04 08:01:12;;;;;;;12.63;7.10;;;;;;;;;;5049666;28;20079;-75
2023/04/04 08:03:38;;;;;;;12.18;6.88;;;;;;;;;;5028794;28;20025;-73
2023/04/04 08:06:05;;;;;;;15.82;6.60;;;;;;;;;;5029778;28;20425;-72
2023/04/04 08:08:31;;;;;;;11.35;6.30;;;;;;;;;;5031037;28;20386;-72
2023/04/04 08:10:57;;;;;;;13.98;9.48;;;;;;;;;;5050053;28;20027;-74
2023/04/04 08:13:23;;;;;;;10.20;6.15;;;;;;;;;;5032370;28;20025;-74
2023/04/04 08:15:49;;;;;;;14.27;5.57;;;;;;;;;;5032240;28;20022;-72
2023/04/04 08:18:15;;;;;;;9.30;5.78;;;;;;;;;;5029552;28;20514;-75
2023/04/04 08:20:42;;;;;;;11.32;5.57;;;;;;;;;;5029510;28;20293;-74
2023/04/04 08:23:08;;;;;;;14.60;5.78;;;;;;;;;;5029154;28;20557;-75
2023/04/04 08:25:34;;;;;;;13.68;5.80;;;;;;;;;;5030114;28;20502;-71
2023/04/04 08:28:03;;;;;;;12.07;5.95;;;;;;;;;;5028034;28;20030;-76
2023/04/04 08:30:29;;;;;;;8.35;5.38;;;;;;;;;;5030744;28;20104;-73
2023/04/04 08:32:55;;;;;;;11.88;5.68;;;;;;;;;;5031089;28;20037;-73
2023/04/04 08:35:21;;;;;;;13.05;6.68;;;;;;;;;;5031034;28;20034;-73
2023/04/04 08:37:47;;;;;;;15.23;6.57;;;;;;;;;;5031026;28;20054;-73
2023/04/04 08:40:13;;;;;;;12.35;6.63;;;;;;;;;;5030685;28;20069;-72
2023/04/04 08:42:42;;;;;;;10.98;5.57;;;;;;;;;;5030772;28;20052;-73
2023/04/04 08:45:09;;;;;;;10.20;5.53;;;;;;;;;;5029306;28;20029;-75
2023/04/04 08:47:36;;;;;;;9.90;6.05;;;;;;;;;;5030154;28;20048;-73
2023/04/04 08:50:06;;;;;;;14.57;6.38;;;;;;;;;;5030311;28;20146;-72
2023/04/04 08:52:35;;;;;;;15.77;5.38;;;;;;;;;;5030931;28;20037;-73
2023/04/04 08:55:02;;;;;;;9.38;5.65;;;;;;;;;;5033714;28;20144;-75
2023/04/04 08:57:29;;;;;;;9.85;5.63;;;;;;;;;;5029474;28;20414;-73
2023/04/04 08:59:55;;;;;;;9.18;5.43;;;;;;;;;;5030520;28;20111;-74
2023/04/04 09:02:37;;;;;;;11.05;5.57;;;;;;;;;;5029724;28;20026;-74
2023/04/04 09:05:03;;;;;;;12.50;6.35;;;;;;;;;;5037593;28;20036;-72
2023/04/04 09:07:29;;;;;;;10.07;5.45;;;;;;;;;;5048321;28;20025;-73
2023/04/04 09:09:57;;;;;;;14.18;5.82;;;;;;;;;;5034125;28;20096;-72
2023/04/04 09:12:24;;;;;;;13.50;7.38;;;;;;;;;;5034148;28;20026;-74
2023/04/04 09:14:51;;;;;;;9.63;5.00;;;;;;;;;;5042063;28;20025;-73
2023/04/04 09:17:17;;;;;;;10.60;5.22;;;;;;;;;;5046789;28;20504;-73
2023/04/04 09:19:44;;;;;;;10.00;5.25;;;;;;;;;;5032849;28;20080;-73
2023/04/04 09:22:10;;;;;;;18.33;6.45;;;;;;;;;;5034212;28;20026;-74
2023/04/04 09:24:37;;;;;;;11.48;5.80;;;;;;;;;;5033908;28;20039;-73
2023/04/04 09:27:03;;;;;;;10.32;4.82;;;;;;;;;;5043728;28;20032;-73
2023/04/04 09:29:29;;;;;;;8.95;4.70;;;;;;;;;;5033391;28;20026;-74
2023/04/04 09:31:56;;;;;;;10.45;5.25;;;;;;;;;;5033799;28;20025;-72
2023/04/04 09:34:22;;;;;;;9.85;5.55;;;;;;;;;;5034083;28;20485;-72
2023/04/04 09:36:48;;;;;;;10.10;4.85;;;;;;;;;;5034264;28;20033;-72
2023/04/04 09:39:19;;;;;;;8.10;5.53;;;;;;;;;;5034031;28;20029;-74
2023/04/04 09:41:45;;;;;;;8.68;4.70;;;;;;;;;;5033788;28;20533;-74
2023/04/04 09:44:13;;;;;;;9.02;4.22;;;;;;;;;;5033847;28;20029;-74
2023/04/04 09:46:40;;;;;;;8.10;4.30;;;;;;;;;;5033737;28;20026;-79
2023/04/04 09:49:10;;;;;;;11.20;3.97;;;;;;;;;;5033770;28;20029;-76
2023/04/04 09:51:37;;;;;;;8.40;4.25;;;;;;;;;;5033558;28;20018;-76
2023/04/04 09:54:05;;;;;;;9.07;4.47;;;;;;;;;;5036405;28;20025;-75
2023/04/04 09:56:33;;;;;;;11.32;4.95;;;;;;;;;;5045437;28;20036;-75
2023/04/04 09:59:01;;;;;;;7.80;3.90;;;;;;;;;;5048828;28;20041;-76
2023/04/04 10:01:28;;;;;;;9.48;4.00;;;;;;;;;;5034885;28;20025;-76
2023/04/04 10:03:54;;;;;;;7.65;4.15;;;;;;;;;;5045424;28;20028;-74
2023/04/04 10:06:21;;;;;;;12.63;4.30;;;;;;;;;;5071042;28;20412;-76
2023/04/04 10:08:47;;;;;;;7.78;4.38;;;;;;;;;;5071984;28;20021;-75
2023/04/04 10:11:27;;;;;;;6.18;3.42;;;;;;;;;;5063977;28;20497;-76
2023/04/04 10:13:53;;;;;;;6.05;4.43;;;;;;;;;;5053399;28;20055;-75
2023/04/04 10:16:20;;;;;;;10.95;4.13;;;;;;;;;;5052626;28;20556;-74
2023/04/04 10:18:47;;;;;;;10.10;3.97;;;;;;;;;;5052844;28;20025;-76
2023/04/04 10:21:14;;;;;;;7.88;3.90;;;;;;;;;;5052824;28;20044;-75
2023/04/04 10:23:41;;;;;;;5.93;3.45;;;;;;;;;;5052949;28;20021;-77
2023/04/04 10:26:07;;;;;;;8.15;3.78;;;;;;;;;;5052926;28;20033;-76
2023/04/04 10:28:33;;;;;;;7.78;3.90;;;;;;;;;;5051651;28;20028;-76
2023/04/04 10:31:18;;;;;;;10.93;3.83;;;;;;;;;;5052749;28;20405;-76
2023/04/04 10:34:06;;;;;;;5.05;3.60;;;;;;;;;;5052801;28;20056;-77
2023/04/04 10:36:43;;;;;;;7.55;3.40;;;;;;;;;;5052779;28;20021;-74
2023/04/04 10:39:09;;;;;;;9.55;4.05;;;;;;;;;;5052178;28;20033;-74
2023/04/04 10:41:36;;;;;;;11.52;4.50;;;;;;;;;;5050989;28;20293;-75
2023/04/04 10:44:09;;;;;;;9.68;3.42;;;;;;;;;;5052319;28;20079;-75
2023/04/04 10:46:37;;;;;;;6.82;3.38;;;;;;;;;;5040150;28;20096;-74
2023/04/04 10:49:03;;;;;;;5.68;3.38;;;;;;;;;;5032633;28;20040;-74
2023/04/04 10:51:30;;;;;;;6.22;3.33;;;;;;;;;;5032119;28;20112;-74
2023/04/04 10:53:57;;;;;;;11.13;3.10;;;;;;;;;;5031217;28;20030;-75
2023/04/04 10:56:23;;;;;;;8.88;3.90;;;;;;;;;;5032506;28;20529;-75
2023/04/04 10:58:50;;;;;;;7.50;3.38;;;;;;;;;;5032442;28;20513;-75
2023/04/04 11:01:19;;;;;;;7.88;3.30;;;;;;;;;;5031006;28;20025;-75
2023/04/04 11:04:04;;;;;;;5.63;3.30;;;;;;;;;;5031718;28;20112;-74
2023/04/04 11:06:50;;;;;;;6.72;3.30;;;;;;;;;;5032432;28;20025;-75
2023/04/04 11:09:36;;;;;;;6.18;2.80;;;;;;;;;;5031816;28;20612;-75
2023/04/04 11:12:14;;;;;;;4.88;3.00;;;;;;;;;;5030796;28;20029;-75
2023/04/04 11:14:53;;;;;;;6.55;3.08;;;;;;;;;;5032079;28;20520;-75
2023/04/04 11:17:35;;;;;;;5.22;3.03;;;;;;;;;;5032069;28;20029;-75
2023/04/04 11:20:05;;;;;;;6.30;3.60;;;;;;;;;;5031239;28;20060;-74
2023/04/04 11:22:31;;;;;;;7.57;3.60;;;;;;;;;;5030710;28;20017;-75
2023/04/04 11:25:00;;;;;;;6.80;3.00;;;;;;;;;;5030717;28;20065;-75
2023/04/04 11:27:26;;;;;;;5.13;2.85;;;;;;;;;;5050550;28;20111;-76
2023/04/04 11:29:52;;;;;;;8.52;3.30;;;;;;;;;;5051572;28;20163;-75
2023/04/04 11:32:42;;;;;;;6.43;2.95;;;;;;;;;;5051611;28;20032;-74
2023/04/04 11:35:09;;;;;;;5.53;2.85;;;;;;;;;;5051900;28;20061;-75
2023/04/04 11:37:43;;;;;;;10.48;3.20;;;;;;;;;;5050263;28;20029;-75
2023/04/04 11:40:11;;;;;;;8.13;3.05;;;;;;;;;;5051350;28;20033;-75
2023/04/04 11:42:38;;;;;;;5.30;2.72;;;;;;;;;;5047276;28;20042;-75
2023/04/04 11:45:06;;;;;;;8.00;2.67;;;;;;;;;;5031779;28;20022;-74
2023/04/04 11:47:32;;;;;;;6.88;2.38;;;;;;;;;;5031596;28;20026;-75
2023/04/04 11:50:00;;;;;;;4.63;2.85;;;;;;;;;;5031540;28;20029;-75
2023/04/04 11:52:32;;;;;;;4.47;2.75;;;;;;;;;;5030234;28;20104;-76
2023/04/04 11:54:59;;;;;;;5.45;2.85;;;;;;;;;;5031262;28;20112;-75
2023/04/04 11:57:25;;;;;;;4.88;2.70;;;;;;;;;;5031372;28;20036;-75
2023/04/04 11:59:51;;;;;;;5.28;2.42;;;;;;;;;;5030765;28;20121;-75
2023/04/04 12:02:23;;;;;;;7.85;3.55;;;;;;;;;;5031711;28;20088;-75
2023/04/04 12:04:51;;;;;;;6.38;2.55;;;;;;;;;;5030161;28;20025;-75
2023/04/04 12:07:17;;;;;;;4.28;2.33;;;;;;;;;;5029885;28;20025;-75
2023/04/04 12:09:43;;;;;;;6.80;2.72;;;;;;;;;;5031343;28;20079;-76
2023/04/04 12:12:15;;;;;;;7.35;3.28;;;;;;;;;;5031345;28;20029;-75
2023/04/04 12:14:41;;;;;;;;;;;;;;;;;;5031573;28;20029;-76
2023/04/04 12:17:07;;;;;;;6.43;2.53;;;;;;;;;;5029294;28;20004;-76
2023/04/04 12:19:37;;;;;;;8.05;2.80;;;;;;;;;;5031062;28;20067;-76
2023/04/04 12:22:04;;;;;;;5.22;2.53;;;;;;;;;;5031110;28;20033;-76
2023/04/04 12:24:31;;;;;;;6.22;2.58;;;;;;;;;;5031137;28;20021;-75
2023/04/04 12:26:58;;;;;;;5.75;2.83;;;;;;;;;;5031289;28;20034;-76
2023/04/04 12:29:26;;;;;;;6.45;2.90;;;;;;;;;;5031180;28;20025;-75
2023/04/04 12:31:52;;;;;;;5.10;2.65;;;;;;;;;;5031030;28;20355;-76
2023/04/04 12:34:21;;;;;;;7.32;2.83;;;;;;;;;;5036192;28;20025;-74
2023/04/04 12:36:47;;;;;;;5.65;2.80;;;;;;;;;;5050850;28;20028;-76
2023/04/04 12:39:15;;;;;;;7.10;3.10;;;;;;;;;;5051233;28;20156;-75
2023/04/04 12:42:07;;;;;;;4.93;2.42;;;;;;;;;;5054773;28;20036;-76
2023/04/04 12:44:41;;;;;;;5.93;2.45;;;;;;;;;;5054373;28;20040;-76
2023/04/04 12:47:08;;;;;;;5.07;2.55;;;;;;;;;;5055195;28;20025;-75
2023/04/04 12:49:39;;;;;;;5.63;2.33;;;;;;;;;;5054699;28;20377;-75
2023/04/04 12:52:07;;;;;;;5.13;3.00;;;;;;;;;;5042420;28;20025;-75
2023/04/04 12:54:38;;;;;;;4.53;2.17;;;;;;;;;;5034288;28;20125;-75
2023/04/04 12:57:06;;;;;;;4.87;2.20;;;;;;;;;;5034617;28;20029;-76
2023/04/04 12:59:35;;;;;;;5.10;2.55;;;;;;;;;;5034983;28;20044;-74
2023/04/04 13:02:02;;;;;;;3.15;1.83;;;;;;;;;;5034626;28;20025;-74
2023/04/04 13:04:28;;;;;;;7.28;2.28;;;;;;;;;;5034563;28;20022;-75
2023/04/04 13:06:54;;;;;;;3.90;1.98;;;;;;;;;;5034517;28;20044;-76
2023/04/04 13:09:21;;;;;;;4.97;2.30;;;;;;;;;;5032970;28;20025;-76
2023/04/04 13:12:00;;;;;;;6.72;2.33;;;;;;;;;;5033909;28;20543;-76
2023/04/04 13:14:45;;;;;;;5.60;2.53;;;;;;;;;;5034498;28;20036;-80
2023/04/04 13:17:12;;;;;;;5.78;2.50;;;;;;;;;;5034321;28;20504;-81
2023/04/04 13:19:38;;;;;;;6.18;2.13;;;;;;;;;;5034244;28;20033;-82
2023/04/04 13:22:07;;;;;;;7.20;2.15;;;;;;;;;;5034356;28;20021;-78
2023/04/04 13:24:33;;;;;;;4.55;2.22;;;;;;;;;;5034305;28;20033;-80
2023/04/04 13:27:00;;;;;;;4.22;2.30;;;;;;;;;;5033513;28;20057;-79
2023/04/04 13:29:26;;;;;;;4.35;2.33;;;;;;;;;;5034349;28;20060;-80
2023/04/04 13:31:52;;;;;;;7.90;2.08;;;;;;;;;;5034339;28;20112;-80
2023/04/04 13:34:21;;;;;;;7.30;2.60;;;;;;;;;;5034343;28;20555;-80
2023/04/04 13:36:47;;;;;;;3.95;2.15;;;;;;;;;;5034032;28;20445;-76
2023/04/04 13:39:14;;;;;;;4.75;2.17;;;;;;;;;;5033734;28;20405;-76
2023/04/04 13:41:40;;;;;;;4.78;2.25;;;;;;;;;;5034177;28;20565;-80
2023/04/04 13:44:06;;;;;;;4.28;2.03;;;;;;;;;;5034539;28;20060;-81
2023/04/04 13:46:32;;;;;;;5.10;2.65;;;;;;;;;;5033871;28;20115;-80
2023/04/04 13:48:58;;;;;;;4.57;2.58;;;;;;;;;;5034689;28;20036;-76
2023/04/04 13:51:25;;;;;;;7.03;2.10;;;;;;;;;;5032597;28;20083;-80
2023/04/04 13:53:51;;;;;;;4.63;2.20;;;;;;;;;;5032618;28;20022;-80
2023/04/04 13:56:17;;;;;;;6.35;2.58;;;;;;;;;;5033948;28;20537;-81
2023/04/04 13:58:43;;;;;;;7.68;2.10;;;;;;;;;;5033899;28;20033;-81
2023/04/04 14:01:09;;;;;;;4.55;2.25;;;;;;;;;;5033000;28;20037;-81
2023/04/04 14:03:36;;;;;;;3.65;2.38;;;;;;;;;;5033636;28;20053;-80
2023/04/04 14:06:02;;;;;;;5.43;2.20;;;;;;;;;;5034053;28;20456;-81
2023/04/04 14:08:29;;;;;;;4.82;2.20;;;;;;;;;;5033696;28;20116;-78
2023/04/04 14:10:55;;;;;;;3.88;2.10;;;;;;;;;;5032012;28;20033;-79
2023/04/04 14:13:21;;;;;;;4.78;2.33;;;;;;;;;;5033275;28;20525;-81
2023/04/04 14:15:49;;;;;;;4.90;1.90;;;;;;;;;;5033791;28;20025;-81
2023/04/04 14:18:15;;;;;;;4.55;2.10;;;;;;;;;;5032854;28;20476;-80
2023/04/04 14:20:41;;;;;;;5.53;1.98;;;;;;;;;;5033285;28;20037;-80
2023/04/04 14:23:08;;;;;;;5.45;2.33;;;;;;;;;;5033262;28;20025;-82
2023/04/04 14:25:34;;;;;;;4.97;1.90;;;;;;;;;;5033285;28;20060;-79
2023/04/04 14:28:00;;;;;;;5.22;2.90;;;;;;;;;;5033243;28;20116;-81
2023/04/04 14:30:27;;;;;;;6.32;2.88;;;;;;;;;;5033113;28;20040;-81
2023/04/04 14:32:53;;;;;;;9.02;2.50;;;;;;;;;;5033935;28;20123;-81
2023/04/04 14:35:20;;;;;;;4.45;2.45;;;;;;;;;;5051552;28;20098;-78
2023/04/04 14:37:48;;;;;;;4.60;2.55;;;;;;;;;;5052935;28;20017;-80
2023/04/04 14:40:14;;;;;;;4.65;2.63;;;;;;;;;;5051273;28;20036;-80